createdAt,value
2023-01-17T00:00:24.896Z,5.80
2023-01-17T00:02:54.077Z,6.05
2023-01-17T00:05:40.476Z,7.18
2023-01-17T00:08:30.913Z,7.07
2023-01-17T00:10:59.835Z,6.28
2023-01-17T00:13:28.985Z,6.53
2023-01-17T00:15:58.034Z,6.25
2023-01-17T00:18:26.985Z,6.55
2023-01-17T00:21:13.092Z,7.57
2023-01-17T00:24:15.377Z,7.60
2023-01-17T00:26:58.260Z,6.82
2023-01-17T00:29:26.034Z,6.53
2023-01-17T00:31:53.744Z,7.05
2023-01-17T00:34:21.501Z,6.65
2023-01-17T00:36:49.316Z,6.25
2023-01-17T00:39:18.517Z,8.00
2023-01-17T00:41:46.230Z,6.40
2023-01-17T00:44:32.886Z,6.43
2023-01-17T00:47:19.137Z,7.63
2023-01-17T00:50:05.583Z,6.97
2023-01-17T00:52:52.114Z,6.88
2023-01-17T00:55:40.053Z,6.85
2023-01-17T00:58:26.952Z,6.57
2023-01-17T01:01:13.169Z,6.82
2023-01-17T01:03:59.604Z,7.00
2023-01-17T01:06:45.764Z,6.32
2023-01-17T01:09:32.109Z,7.47
2023-01-17T01:12:19.975Z,6.82
2023-01-17T01:15:06.210Z,7.82
2023-01-17T01:17:52.522Z,6.00
2023-01-17T01:20:38.839Z,7.00
2023-01-17T01:23:25.080Z,7.07
2023-01-17T01:26:11.375Z,6.97
2023-01-17T01:28:59.339Z,8.30
2023-01-17T01:31:45.466Z,6.05
2023-01-17T01:34:14.634Z,6.15
2023-01-17T01:36:43.629Z,6.90
2023-01-17T01:39:12.652Z,7.03
2023-01-17T01:41:41.631Z,6.90
2023-01-17T01:44:45.015Z,7.22
2023-01-17T01:47:19.464Z,7.10
2023-01-17T01:49:49.798Z,6.95
2023-01-17T01:52:20.518Z,6.18
2023-01-17T01:54:54.423Z,7.28
2023-01-17T01:57:26.214Z,7.03
2023-01-17T02:00:00.389Z,7.80
2023-01-17T02:02:31.558Z,6.28
2023-01-17T02:05:04.501Z,7.97
2023-01-17T02:07:39.289Z,6.85
2023-01-17T02:10:09.834Z,7.25
2023-01-17T02:12:39.729Z,8.13
2023-01-17T02:15:11.100Z,7.40
2023-01-17T02:17:53.149Z,7.78
2023-01-17T02:20:58.786Z,6.68
2023-01-17T02:23:49.227Z,7.47
2023-01-17T02:26:52.041Z,6.32
2023-01-17T02:30:05.106Z,7.28
2023-01-17T02:32:59.843Z,6.93
2023-01-17T02:35:36.459Z,7.82
2023-01-17T02:38:16.406Z,6.78
2023-01-17T02:40:49.658Z,8.13
2023-01-17T02:43:22.258Z,6.57
2023-01-17T02:45:51.662Z,7.55
2023-01-17T02:48:26.069Z,7.45
2023-01-17T02:51:11.425Z,7.27
2023-01-17T02:53:54.475Z,7.13
2023-01-17T02:56:35.986Z,7.22
2023-01-17T02:59:15.575Z,6.50
2023-01-17T03:01:58.293Z,7.15
2023-01-17T03:04:36.219Z,7.07
2023-01-17T03:07:10.847Z,6.20
2023-01-17T03:09:43.751Z,6.97
2023-01-17T03:12:13.691Z,7.30
2023-01-17T03:14:42.722Z,6.03
2023-01-17T03:17:11.769Z,6.80
2023-01-17T03:19:42.090Z,7.03
2023-01-17T03:22:11.347Z,8.13
2023-01-17T03:24:40.376Z,6.82
2023-01-17T03:27:09.345Z,7.15
2023-01-17T03:29:38.887Z,7.40
2023-01-17T03:32:07.958Z,6.70
2023-01-17T03:34:37.022Z,6.60
2023-01-17T03:37:11.791Z,6.88
2023-01-17T03:39:40.866Z,7.45
2023-01-17T03:42:09.785Z,7.55
2023-01-17T03:44:38.965Z,7.68
2023-01-17T03:47:12.250Z,7.00
2023-01-17T03:49:41.567Z,6.30
2023-01-17T03:52:12.196Z,6.75
2023-01-17T03:54:41.603Z,7.07
2023-01-17T03:57:13.483Z,6.47
2023-01-17T03:59:42.621Z,6.25
2023-01-17T04:02:11.808Z,7.15
2023-01-17T04:04:41.209Z,6.80
2023-01-17T04:07:11.549Z,6.43
2023-01-17T04:09:40.568Z,6.40
2023-01-17T04:12:09.759Z,6.80
2023-01-17T04:14:38.759Z,7.72
2023-01-17T04:17:08.125Z,7.63
2023-01-17T04:19:37.906Z,6.75
2023-01-17T04:22:06.973Z,6.47
2023-01-17T04:24:38.090Z,7.18
2023-01-17T04:27:07.260Z,6.97
2023-01-17T04:29:36.311Z,6.93
2023-01-17T04:32:05.765Z,6.30
2023-01-17T04:34:34.913Z,7.35
2023-01-17T04:37:03.945Z,7.55
2023-01-17T04:39:33.355Z,7.47
2023-01-17T04:42:04.118Z,6.85
2023-01-17T04:44:33.181Z,6.38
2023-01-17T04:47:03.043Z,6.88
2023-01-17T04:49:32.069Z,7.32
2023-01-17T04:52:01.082Z,6.55
2023-01-17T04:54:30.070Z,6.28
2023-01-17T04:56:59.219Z,7.47
2023-01-17T04:59:29.807Z,6.18
2023-01-17T05:01:58.856Z,6.90
2023-01-17T05:04:27.938Z,7.93
2023-01-17T05:06:56.943Z,7.30
2023-01-17T05:09:26.089Z,7.13
2023-01-17T05:11:55.816Z,6.80
2023-01-17T05:14:26.437Z,7.03
2023-01-17T05:16:58.047Z,6.70
2023-01-17T05:19:28.169Z,7.22
2023-01-17T05:22:04.136Z,7.18
2023-01-17T05:24:33.528Z,7.00
2023-01-17T05:27:03.973Z,7.78
2023-01-17T05:29:32.952Z,7.18
2023-01-17T05:32:03.294Z,6.95
2023-01-17T05:34:32.676Z,6.43
2023-01-17T05:37:01.664Z,6.55
2023-01-17T05:39:31.195Z,7.13
2023-01-17T05:42:00.726Z,6.78
2023-01-17T05:44:29.763Z,6.43
2023-01-17T05:46:58.945Z,6.25
2023-01-17T05:49:29.246Z,6.28
2023-01-17T05:51:58.183Z,6.03
2023-01-17T05:54:27.211Z,5.47
2023-01-17T05:56:56.278Z,7.13
2023-01-17T05:59:36.455Z,6.78
2023-01-17T06:02:06.495Z,6.07
2023-01-17T06:04:37.188Z,6.40
2023-01-17T06:07:06.172Z,5.78
2023-01-17T06:09:35.283Z,6.65
2023-01-17T06:12:04.310Z,6.22
2023-01-17T06:14:33.331Z,6.72
2023-01-17T06:17:02.273Z,5.72
2023-01-17T06:19:31.235Z,6.32
2023-01-17T06:22:01.574Z,5.95
2023-01-17T06:24:30.687Z,5.93
2023-01-17T06:26:59.649Z,6.20
2023-01-17T06:29:28.596Z,5.60
2023-01-17T06:31:58.194Z,5.15
2023-01-17T06:34:28.129Z,5.45
2023-01-17T06:36:57.127Z,5.70
2023-01-17T06:39:27.673Z,5.65
2023-01-17T06:41:56.758Z,6.43
2023-01-17T06:44:26.406Z,5.60
2023-01-17T06:46:55.884Z,6.53
2023-01-17T06:49:24.974Z,5.28
2023-01-17T06:51:54.092Z,5.97
2023-01-17T06:54:23.419Z,6.57
2023-01-17T06:56:53.790Z,6.13
2023-01-17T06:59:23.055Z,5.60
2023-01-17T07:01:52.669Z,5.50
2023-01-17T07:04:21.776Z,5.63
2023-01-17T07:06:50.733Z,5.63
2023-01-17T07:09:19.894Z,6.30
2023-01-17T07:11:49.004Z,6.00
2023-01-17T07:14:19.357Z,5.53
2023-01-17T07:16:50.303Z,5.20
2023-01-17T07:19:19.364Z,6.32
2023-01-17T07:21:48.375Z,5.57
2023-01-17T07:24:17.508Z,5.38
2023-01-17T07:26:49.281Z,5.65
2023-01-17T07:29:20.029Z,5.65
2023-01-17T07:31:50.422Z,6.40
2023-01-17T07:34:19.452Z,6.13
2023-01-17T07:36:49.878Z,6.80
2023-01-17T07:39:19.050Z,5.88
2023-01-17T07:41:48.295Z,6.75
2023-01-17T07:44:19.273Z,6.78
2023-01-17T07:46:48.260Z,6.38
2023-01-17T07:49:17.336Z,5.95
2023-01-17T07:51:47.831Z,6.53
2023-01-17T07:54:17.017Z,6.68
2023-01-17T07:56:47.303Z,7.53
2023-01-17T07:59:16.295Z,6.97
2023-01-17T08:01:47.006Z,6.20
2023-01-17T08:04:16.157Z,6.43
2023-01-17T08:06:47.708Z,6.65
2023-01-17T08:09:16.810Z,6.78
2023-01-17T08:11:45.836Z,6.25
2023-01-17T08:14:14.838Z,6.80
2023-01-17T08:16:43.880Z,8.30
2023-01-17T08:19:16.946Z,7.15
2023-01-17T08:21:46.387Z,6.60
2023-01-17T08:24:16.062Z,7.88
2023-01-17T08:26:45.016Z,7.20
2023-01-17T08:29:14.228Z,6.75
2023-01-17T08:31:43.342Z,8.23
2023-01-17T08:34:14.252Z,8.52
2023-01-17T08:36:45.058Z,8.13
2023-01-17T08:39:14.276Z,7.25
2023-01-17T08:41:43.406Z,7.93
2023-01-17T08:44:12.623Z,8.85
2023-01-17T08:46:44.386Z,7.57
2023-01-17T08:49:13.840Z,7.68
2023-01-17T08:51:44.320Z,7.85
2023-01-17T08:54:15.349Z,8.80
2023-01-17T08:56:44.527Z,9.10
2023-01-17T08:59:14.053Z,7.63
2023-01-17T09:01:46.170Z,9.02
2023-01-17T09:04:16.464Z,8.50
2023-01-17T09:06:48.597Z,7.95
2023-01-17T09:09:18.923Z,7.97
2023-01-17T09:11:47.904Z,8.35
2023-01-17T09:14:17.093Z,8.90
2023-01-17T09:16:46.400Z,8.85
2023-01-17T09:19:15.423Z,7.88
2023-01-17T09:21:46.302Z,9.10
2023-01-17T09:24:15.546Z,8.32
2023-01-17T09:26:44.820Z,9.00
2023-01-17T09:29:18.027Z,7.95
2023-01-17T09:31:48.297Z,8.65
2023-01-17T09:34:18.688Z,8.73
2023-01-17T09:36:49.051Z,8.18
2023-01-17T09:39:18.271Z,7.38
2023-01-17T09:41:53.381Z,8.82
2023-01-17T09:44:29.590Z,8.10
2023-01-17T09:47:08.832Z,8.38
2023-01-17T09:49:42.609Z,9.23
2023-01-17T09:52:15.897Z,7.97
2023-01-17T09:54:47.523Z,7.95
2023-01-17T09:57:42.522Z,8.52
2023-01-17T10:00:22.204Z,8.27
2023-01-17T10:03:16.281Z,8.02
2023-01-17T10:05:59.654Z,8.45
2023-01-17T10:08:46.483Z,8.50
2023-01-17T10:11:34.379Z,9.90
2023-01-17T10:14:18.197Z,8.18
2023-01-17T10:16:56.501Z,9.13
2023-01-17T10:19:39.288Z,8.25
2023-01-17T10:22:26.948Z,9.43
2023-01-17T10:25:24.493Z,10.50
2023-01-17T10:27:59.112Z,8.65
2023-01-17T10:30:35.094Z,8.40
2023-01-17T10:33:13.159Z,8.93
2023-01-17T10:35:52.204Z,9.70
2023-01-17T10:38:26.073Z,9.50
2023-01-17T10:41:02.065Z,9.52
2023-01-17T10:43:41.504Z,9.35
2023-01-17T10:46:17.141Z,9.35
2023-01-17T10:48:49.675Z,10.02
2023-01-17T10:51:45.097Z,9.00
2023-01-17T10:54:29.564Z,10.75
2023-01-17T10:57:00.706Z,9.80
2023-01-17T10:59:33.672Z,9.27
2023-01-17T11:02:07.295Z,11.07
2023-01-17T11:04:39.472Z,9.07
2023-01-17T11:07:14.874Z,9.02
2023-01-17T11:09:45.364Z,10.35
2023-01-17T11:12:28.050Z,11.23
2023-01-17T11:15:04.912Z,11.23
2023-01-17T11:17:35.258Z,10.10
2023-01-17T11:20:29.636Z,11.55
2023-01-17T11:23:09.182Z,8.40
2023-01-17T11:25:39.162Z,10.15
2023-01-17T11:28:22.362Z,10.20
2023-01-17T11:30:54.877Z,10.63
2023-01-17T11:33:48.031Z,10.55
2023-01-17T11:36:19.472Z,10.85
2023-01-17T11:39:02.990Z,10.07
2023-01-17T11:41:36.501Z,10.48
2023-01-17T11:44:24.973Z,11.10
2023-01-17T11:47:24.824Z,10.15
2023-01-17T11:49:53.899Z,9.73
2023-01-17T11:52:25.479Z,11.32
2023-01-17T11:54:56.608Z,9.85
2023-01-17T11:57:28.123Z,10.48
2023-01-17T12:00:07.780Z,9.98
2023-01-17T12:03:15.393Z,11.25
2023-01-17T12:05:57.076Z,11.30
2023-01-17T12:08:46.895Z,9.60
2023-01-17T12:11:24.040Z,9.98
2023-01-17T12:14:01.723Z,10.55
2023-01-17T12:16:46.192Z,10.23
2023-01-17T12:19:43.731Z,10.13
2023-01-17T12:22:29.042Z,10.38
2023-01-17T12:25:24.770Z,9.40
2023-01-17T12:28:08.886Z,10.95
2023-01-17T12:30:54.402Z,9.57
2023-01-17T12:33:28.827Z,9.73
2023-01-17T12:36:00.339Z,10.85
2023-01-17T12:38:34.811Z,10.10
2023-01-17T12:41:08.831Z,9.73
2023-01-17T12:43:40.982Z,10.32
2023-01-17T12:46:20.977Z,8.45
2023-01-17T12:48:53.984Z,10.60
2023-01-17T12:51:29.547Z,10.38
2023-01-17T12:54:04.415Z,9.93
2023-01-17T12:59:15.417Z,8.43
2023-01-17T13:01:57.892Z,8.57
2023-01-17T13:04:34.983Z,9.00
2023-01-17T13:07:13.907Z,10.00
2023-01-17T13:09:47.458Z,8.85
2023-01-17T13:12:19.391Z,8.68
2023-01-17T13:14:48.824Z,8.75
2023-01-17T13:17:32.843Z,9.07
2023-01-17T13:20:14.839Z,8.43
2023-01-17T13:22:45.820Z,8.65
2023-01-17T13:25:33.375Z,12.70
2023-01-17T13:28:09.617Z,8.80
2023-01-17T13:31:06.043Z,9.35
2023-01-17T13:33:48.310Z,9.82
2023-01-17T13:36:34.444Z,7.95
2023-01-17T13:39:31.357Z,7.80
2023-01-17T13:42:13.589Z,8.70
2023-01-17T13:44:42.789Z,8.45
2023-01-17T13:47:40.594Z,8.73
2023-01-17T13:50:50.669Z,8.07
2023-01-17T13:53:56.431Z,8.23
2023-01-17T13:56:34.776Z,8.63
2023-01-17T13:59:06.754Z,9.63
2023-01-17T14:01:54.756Z,8.93
2023-01-17T14:04:25.660Z,8.77
2023-01-17T14:06:58.063Z,8.75
2023-01-17T14:09:30.901Z,8.60
2023-01-17T14:12:07.246Z,8.68
2023-01-17T14:14:49.781Z,8.95
2023-01-17T14:17:39.968Z,8.02
2023-01-17T14:20:42.282Z,8.32
2023-01-17T14:23:29.623Z,7.80
2023-01-17T14:26:01.618Z,7.85
2023-01-17T14:28:33.903Z,7.40
2023-01-17T14:31:11.024Z,8.55
2023-01-17T14:33:41.900Z,8.77
2023-01-17T14:36:22.223Z,8.57
2023-01-17T14:38:51.198Z,8.85
2023-01-17T14:41:23.859Z,7.95
2023-01-17T14:43:55.071Z,9.38
2023-01-17T14:46:28.073Z,9.65
2023-01-17T14:49:02.877Z,9.90
2023-01-17T14:51:35.291Z,9.35
2023-01-17T14:54:16.884Z,9.07
2023-01-17T14:56:46.860Z,8.57
2023-01-17T14:59:21.699Z,8.95
2023-01-17T15:02:06.814Z,9.52
2023-01-17T15:04:39.881Z,8.52
2023-01-17T15:07:16.548Z,9.35
2023-01-17T15:09:46.514Z,9.38
2023-01-17T15:12:15.875Z,9.93
2023-01-17T15:14:47.753Z,9.13
2023-01-17T15:17:19.853Z,8.88
2023-01-17T15:19:54.138Z,9.23
2023-01-17T15:22:24.426Z,9.90
2023-01-17T15:24:54.901Z,9.57
2023-01-17T15:27:25.146Z,9.23
2023-01-17T15:29:59.223Z,9.38
2023-01-17T15:32:31.468Z,8.50
2023-01-17T15:35:03.056Z,10.73
2023-01-17T15:37:35.431Z,9.35
2023-01-17T15:40:07.965Z,8.82
2023-01-17T15:42:43.658Z,8.10
2023-01-17T15:45:19.975Z,9.60
2023-01-17T15:47:49.289Z,9.63
2023-01-17T15:50:30.931Z,10.07
2023-01-17T15:53:02.348Z,10.65
2023-01-17T15:55:33.820Z,10.63
2023-01-17T15:58:03.713Z,10.25
2023-01-17T16:00:39.771Z,10.55
2023-01-17T16:03:22.959Z,10.05
2023-01-17T16:05:54.049Z,9.98
2023-01-17T16:08:38.783Z,10.80
2023-01-17T16:11:09.399Z,10.23
2023-01-17T16:13:42.413Z,7.43
2023-01-17T16:16:22.205Z,10.25
2023-01-17T16:19:01.524Z,10.90
2023-01-17T16:21:31.684Z,11.93
2023-01-17T16:24:03.017Z,10.40
2023-01-17T16:26:32.045Z,9.43
2023-01-17T16:29:01.176Z,9.77
2023-01-17T16:31:31.588Z,9.35
2023-01-17T16:34:00.758Z,10.52
2023-01-17T16:36:29.873Z,12.05
2023-01-17T16:38:59.102Z,11.50
2023-01-17T16:41:28.220Z,9.70
2023-01-17T16:44:03.051Z,11.80
2023-01-17T16:46:35.246Z,10.23
2023-01-17T16:49:04.319Z,10.32
2023-01-17T16:51:34.643Z,10.77
2023-01-17T16:54:03.797Z,10.60
2023-01-17T16:56:33.010Z,10.55
2023-01-17T16:59:02.032Z,10.52
2023-01-17T17:01:31.330Z,9.82
2023-01-17T17:04:01.883Z,11.02
2023-01-17T17:06:32.349Z,9.27
2023-01-17T17:09:01.436Z,10.35
2023-01-17T17:11:30.675Z,10.43
2023-01-17T17:14:03.202Z,9.73
2023-01-17T17:16:33.093Z,9.27
2023-01-17T17:19:05.444Z,10.82
2023-01-17T17:21:35.761Z,9.85
2023-01-17T17:24:05.420Z,9.50
2023-01-17T17:26:36.436Z,10.32
2023-01-17T17:29:06.790Z,8.25
2023-01-17T17:31:35.966Z,9.25
2023-01-17T17:34:07.912Z,10.13
2023-01-17T17:36:37.463Z,9.65
2023-01-17T17:39:09.525Z,9.25
2023-01-17T17:41:42.315Z,9.70
2023-01-17T17:44:11.393Z,9.60
2023-01-17T17:46:42.323Z,9.32
2023-01-17T17:49:13.240Z,8.38
2023-01-17T17:51:45.352Z,9.45
2023-01-17T17:54:16.434Z,9.32
2023-01-17T17:56:47.923Z,8.35
2023-01-17T17:59:30.681Z,8.63
2023-01-17T18:02:11.134Z,7.95
2023-01-17T18:04:41.639Z,8.40
2023-01-17T18:07:10.768Z,7.90
2023-01-17T18:09:39.832Z,7.25
2023-01-17T18:12:10.299Z,8.70
2023-01-17T18:14:40.527Z,7.82
2023-01-17T18:17:10.754Z,8.57
2023-01-17T18:19:42.721Z,7.90
2023-01-17T18:22:11.719Z,6.75
2023-01-17T18:24:40.899Z,8.35
2023-01-17T18:27:10.676Z,9.75
2023-01-17T18:29:40.057Z,7.97
2023-01-17T18:32:09.100Z,7.13
2023-01-17T18:34:41.618Z,8.73
2023-01-17T18:37:12.215Z,8.00
2023-01-17T18:39:41.351Z,8.18
2023-01-17T18:42:11.748Z,7.25
2023-01-17T18:44:40.741Z,7.90
2023-01-17T18:47:11.068Z,7.88
2023-01-17T18:49:40.113Z,7.60
2023-01-17T18:52:09.649Z,7.10
2023-01-17T18:54:40.067Z,7.57
2023-01-17T18:57:09.067Z,8.07
2023-01-17T18:59:38.226Z,7.07
2023-01-17T19:02:07.671Z,6.35
2023-01-17T19:04:37.979Z,8.18
2023-01-17T19:07:07.041Z,6.82
2023-01-17T19:09:36.137Z,6.88
2023-01-17T19:12:07.783Z,6.53
2023-01-17T19:14:36.923Z,6.32
2023-01-17T19:17:05.963Z,6.72
2023-01-17T19:19:35.037Z,7.60
2023-01-17T19:22:05.089Z,6.95
2023-01-17T19:24:35.948Z,7.20
2023-01-17T19:27:07.454Z,7.07
2023-01-17T19:29:37.148Z,7.55
2023-01-17T19:32:07.532Z,6.55
2023-01-17T19:34:36.582Z,6.85
2023-01-17T19:37:06.179Z,8.43
2023-01-17T19:39:35.631Z,7.95
2023-01-17T19:42:04.872Z,7.60
2023-01-17T19:44:35.433Z,7.80
2023-01-17T19:47:04.479Z,7.55
2023-01-17T19:49:34.161Z,8.10
2023-01-17T19:52:03.665Z,8.35
2023-01-17T19:54:32.839Z,7.20
2023-01-17T19:57:01.886Z,7.97
2023-01-17T19:59:31.311Z,8.25
2023-01-17T20:02:02.202Z,7.75
2023-01-17T20:04:31.626Z,7.55
2023-01-17T20:07:00.748Z,8.32
2023-01-17T20:09:30.008Z,8.45
2023-01-17T20:11:59.100Z,9.68
2023-01-17T20:14:30.079Z,8.40
2023-01-17T20:16:59.071Z,7.85
2023-01-17T20:19:29.552Z,8.75
2023-01-17T20:21:58.551Z,8.10
2023-01-17T20:24:27.775Z,8.38
2023-01-17T20:26:58.162Z,8.93
2023-01-17T20:29:27.182Z,8.43
2023-01-17T20:31:56.265Z,10.75
2023-01-17T20:34:25.973Z,9.25
2023-01-17T20:36:59.246Z,9.15
2023-01-17T20:39:28.374Z,9.02
2023-01-17T20:41:57.886Z,9.25
2023-01-17T20:44:27.520Z,9.57
2023-01-17T20:46:56.611Z,8.73
2023-01-17T20:49:25.823Z,9.48
2023-01-17T20:51:56.615Z,7.28
2023-01-17T20:54:28.519Z,8.45
2023-01-17T20:56:57.493Z,8.65
2023-01-17T20:59:26.660Z,8.70
2023-01-17T21:01:55.802Z,7.72
2023-01-17T21:04:27.021Z,8.70
2023-01-17T21:06:57.820Z,8.23
2023-01-17T21:09:27.201Z,8.68
2023-01-17T21:12:01.352Z,9.02
2023-01-17T21:14:32.913Z,7.78
2023-01-17T21:17:01.913Z,8.90
2023-01-17T21:19:31.169Z,8.60
2023-01-17T21:22:05.680Z,7.78
2023-01-17T21:24:36.583Z,9.05
2023-01-17T21:27:05.697Z,7.57
2023-01-17T21:29:34.620Z,8.85
2023-01-17T21:32:03.572Z,7.47
2023-01-17T21:34:34.707Z,7.93
2023-01-17T21:37:05.134Z,7.18
2023-01-17T21:39:34.086Z,8.88
2023-01-17T21:42:03.265Z,8.65
2023-01-17T21:44:36.416Z,7.70
2023-01-17T21:47:05.588Z,8.45
2023-01-17T21:49:35.306Z,7.68
2023-01-17T21:52:21.278Z,8.25
2023-01-17T21:55:07.528Z,9.32
2023-01-17T21:57:53.789Z,8.15
2023-01-17T22:00:22.906Z,8.45
2023-01-17T22:02:51.930Z,8.10
2023-01-17T22:05:20.854Z,8.05
2023-01-17T22:08:07.086Z,8.52
2023-01-17T22:10:44.662Z,7.75
2023-01-17T22:13:15.387Z,8.68
2023-01-17T22:15:45.173Z,8.27
2023-01-17T22:18:15.408Z,9.57
2023-01-17T22:20:44.641Z,8.18
2023-01-17T22:23:15.041Z,8.55
2023-01-17T22:25:44.094Z,8.63
2023-01-17T22:28:13.172Z,8.30
2023-01-17T22:30:42.255Z,8.98
2023-01-17T22:33:11.238Z,9.65
2023-01-17T22:35:40.230Z,9.80
2023-01-17T22:38:09.264Z,10.13
2023-01-17T22:40:39.700Z,8.23
2023-01-17T22:43:08.782Z,10.23
2023-01-17T22:45:37.715Z,9.05
2023-01-17T22:48:06.998Z,11.07
2023-01-17T22:50:35.946Z,8.93
2023-01-17T22:53:04.942Z,10.38
2023-01-17T22:55:33.938Z,9.55
2023-01-17T22:58:04.357Z,9.98
2023-01-17T23:00:33.380Z,11.43
2023-01-17T23:03:02.630Z,10.80
2023-01-17T23:05:31.652Z,9.38
2023-01-17T23:08:02.274Z,9.18
2023-01-17T23:10:48.834Z,9.40
2023-01-17T23:13:19.676Z,8.30
2023-01-17T23:16:05.905Z,9.93
2023-01-17T23:18:52.246Z,8.98
2023-01-17T23:21:21.380Z,9.63
2023-01-17T23:23:50.435Z,8.32
2023-01-17T23:26:19.359Z,10.07
2023-01-17T23:28:49.349Z,8.70
2023-01-17T23:31:18.351Z,9.07
2023-01-17T23:33:49.034Z,10.15
2023-01-17T23:36:18.076Z,9.18
2023-01-17T23:38:47.035Z,9.35
2023-01-17T23:41:33.071Z,8.88
2023-01-17T23:44:03.968Z,9.20
2023-01-17T23:46:33.011Z,10.45
2023-01-17T23:49:02.047Z,8.02
2023-01-17T23:51:31.182Z,9.38
2023-01-17T23:54:05.616Z,10.93
2023-01-17T23:56:34.846Z,11.60
2023-01-17T23:59:05.943Z,9.43
